Monday, November 20, 2017, 1:47 PM EST
Back to Local

K40B, Clayton Lake

Location: Ashland, ME, United States Lat: 46.617
Local Time: 1:47 PM EST (18:47 GMT) Lon: -69.533
Time Zone: US/Eastern Elev: 1030 ft

Show me the last for .
Show Decoded

2017-11-20 13:16 METAR K40B 201816Z AUTO 25008G21KT 070V050 M08/M14 A2963 RMK AO1 SLP061
                 T10761144 11054 21080 52014 P0001 60001 =
2017-11-20 12:16 METAR K40B 201716Z AUTO 25006G18KT 120V360 M08/M12 A2961 RMK AO1 SLP055
                 T10781124 52015 =
2017-11-20 11:16 METAR K40B 201616Z AUTO 23007G21KT 150V270 M07/M12 A2960 RMK AO1 SLP049
                 T10691124 52015 =
2017-11-20 10:16 METAR K40B 201516Z AUTO 21008G21KT 110V280 M06/M11 A2958 RMK AO1 SLP044
                 T10581111 51020 =
2017-11-20 09:16 METAR K40B 201416Z AUTO 24008G18KT 170V320 M06/M11 A2957 RMK AO1 SLP038
                 T10621108 51022 =
2017-11-20 08:16 METAR K40B 201316Z AUTO VRB05G14KT M06/M09 A2955 RMK AO1 SLP032 T10611094 52027
                 =
2017-11-20 07:16 METAR K40B 201216Z AUTO VRB05G13KT M06/M10 A2952 RMK AO1 SLP022 T10641096 11044
                 21068 51025 P0000 60000 70039 =
2017-11-20 06:16 METAR K40B 201116Z AUTO VRB05G14KT M06/M10 A2950 RMK AO1 SLP013 T10651100 51023
                 =
2017-11-20 05:16 METAR K40B 201016Z AUTO 23007G18KT 150V350 M06/M10 A2946 RMK AO1 PK WND
                 19027/0924 SLP002 T10611099 51015 =
2017-11-20 04:16 METAR K40B 200916Z AUTO 25010G24KT 180V300 M06/M10 A2945 RMK AO1 SLP996
                 T10591102 51017 =
2017-11-20 03:16 METAR K40B 200816Z AUTO 24007G20KT 170V320 M05/M09 A2943 RMK AO1 SLP986
                 T10541093 51022 =
2017-11-20 02:16 METAR K40B 200716Z AUTO VRB06G16KT M05/M08 A2942 RMK AO1 SLP984 T10471081 51033
                 =
2017-11-20 01:16 METAR K40B 200616Z AUTO 23009G16KT 190V290 M04/M08 A2940 RMK AO1 SLP974
                 T10441083 11023 21044 53030 P0000 60001 =
2017-11-20 00:16 METAR K40B 200516Z AUTO 24007G21KT 150V030 M04/M08 A2936 RMK AO1 SLP960
                 T10401079 400721040 53026 =
2017-11-19 23:16 METAR K40B 200416Z AUTO VRB04G15KT M04/M08 A2932 RMK AO1 SLP945 T10361078 51027
                 P0000 =
2017-11-19 22:16 METAR K40B 200316Z AUTO 23007G18KT 090V030 M04/M07 A2930 RMK AO1 SLP939
                 T10361075 51033 =
2017-11-19 21:16 METAR K40B 200216Z AUTO VRB06G20KT M03/M07 A2928 RMK AO1 PK WND 26026/0117
                 SLP930 T10341070 51044 =
2017-11-19 20:16 METAR K40B 200116Z AUTO 25008G20KT 150V040 M03/M06 A2924 RMK AO1 PK WND
                 23029/0038 SLP915 T10291062 51049 =
2017-11-19 19:16 METAR K40B 200016Z AUTO 25008G21KT 100V340 M02/M05 A2920 RMK AO1 PK WND
                 23026/2341 PRESFR SLP903 T10231048 10072 21023 53050 60007 =
2017-11-19 18:16 METAR K40B 192316Z AUTO 23007G22KT 080V010 M02/M03 A2914 RMK AO1 PK WND
                 21033/2218 SLP881 T10171035 53045 =
2017-11-19 17:16 METAR K40B 192216Z AUTO 24011G32KT 160V360 M01/M03 A2909 RMK AO1 PK WND
                 22032/2207 SLP862 T10081026 51045 P0000 =
2017-11-19 16:16 METAR K40B 192116Z AUTO 23009G18KT 160V290 01/00 A2905 RMK AO1 SLP850 T00090005
                 53037 P0001 60006 =
2017-11-19 15:16 METAR K40B 192016Z AUTO 21008G23KT 110V280 03/02 A2900 RMK AO1 SLP833 T00260020
                 53012 P0000 =
2017-11-19 14:16 METAR K40B 191916Z AUTO 22007G15KT 090V310 07/07 A2895 RMK AO1 SLP816 T00680069
                 55011 P0005 =

Support USWX by starting your Amazon purchase here.